sensor_id;sensor_type;location;lat;lon;timestamp;temperature;humidity
58566;DHT22;47788;46.172;-1.158;2022-08-19T00:00:20;19.50;99.90
58566;DHT22;47788;46.172;-1.158;2022-08-19T00:02:46;19.50;99.90
58566;DHT22;47788;46.172;-1.158;2022-08-19T00:05:13;19.50;99.90
58566;DHT22;47788;46.172;-1.158;2022-08-19T00:07:39;19.60;99.90
58566;DHT22;47788;46.172;-1.158;2022-08-19T00:10:07;19.60;99.90
58566;DHT22;47788;46.172;-1.158;2022-08-19T00:12:33;19.60;99.90
58566;DHT22;47788;46.172;-1.158;2022-08-19T00:14:59;19.50;99.90
58566;DHT22;47788;46.172;-1.158;2022-08-19T00:17:26;19.50;99.90
58566;DHT22;47788;46.172;-1.158;2022-08-19T00:19:51;19.50;99.90
58566;DHT22;47788;46.172;-1.158;2022-08-19T00:22:17;19.50;99.90
58566;DHT22;47788;46.172;-1.158;2022-08-19T00:24:46;19.60;99.90
58566;DHT22;47788;46.172;-1.158;2022-08-19T00:27:12;19.60;99.90
58566;DHT22;47788;46.172;-1.158;2022-08-19T00:29:38;19.60;99.90
58566;DHT22;47788;46.172;-1.158;2022-08-19T00:32:04;19.60;99.90
58566;DHT22;47788;46.172;-1.158;2022-08-19T00:34:30;19.70;99.90
58566;DHT22;47788;46.172;-1.158;2022-08-19T00:36:56;19.70;99.90
58566;DHT22;47788;46.172;-1.158;2022-08-19T00:39:22;19.70;99.90
58566;DHT22;47788;46.172;-1.158;2022-08-19T00:41:49;19.70;99.90
58566;DHT22;47788;46.172;-1.158;2022-08-19T00:44:23;19.70;99.90
58566;DHT22;47788;46.172;-1.158;2022-08-19T00:46:51;19.70;99.90
58566;DHT22;47788;46.172;-1.158;2022-08-19T00:51:53;19.70;99.90
58566;DHT22;47788;46.172;-1.158;2022-08-19T00:54:21;19.70;99.90
58566;DHT22;47788;46.172;-1.158;2022-08-19T00:56:47;19.80;99.90
58566;DHT22;47788;46.172;-1.158;2022-08-19T00:59:15;19.70;99.90
58566;DHT22;47788;46.172;-1.158;2022-08-19T01:01:43;19.70;99.90
58566;DHT22;47788;46.172;-1.158;2022-08-19T01:04:09;19.70;99.90
58566;DHT22;47788;46.172;-1.158;2022-08-19T01:06:37;19.80;99.90
58566;DHT22;47788;46.172;-1.158;2022-08-19T01:09:04;19.80;99.90
58566;DHT22;47788;46.172;-1.158;2022-08-19T01:11:31;19.80;99.90
58566;DHT22;47788;46.172;-1.158;2022-08-19T01:13:58;19.80;99.90
58566;DHT22;47788;46.172;-1.158;2022-08-19T01:16:27;19.90;99.90
58566;DHT22;47788;46.172;-1.158;2022-08-19T01:18:54;19.80;99.90
58566;DHT22;47788;46.172;-1.158;2022-08-19T01:23:50;19.90;99.90
58566;DHT22;47788;46.172;-1.158;2022-08-19T01:26:19;19.90;99.90
58566;DHT22;47788;46.172;-1.158;2022-08-19T01:28:47;19.90;99.90
58566;DHT22;47788;46.172;-1.158;2022-08-19T01:31:17;19.90;99.90
58566;DHT22;47788;46.172;-1.158;2022-08-19T01:33:44;19.90;99.90
58566;DHT22;47788;46.172;-1.158;2022-08-19T01:36:13;19.80;99.90
58566;DHT22;47788;46.172;-1.158;2022-08-19T01:38:42;19.90;99.90
58566;DHT22;47788;46.172;-1.158;2022-08-19T01:41:10;19.90;99.90
58566;DHT22;47788;46.172;-1.158;2022-08-19T01:43:36;19.90;99.90
58566;DHT22;47788;46.172;-1.158;2022-08-19T01:46:03;19.90;99.90
58566;DHT22;47788;46.172;-1.158;2022-08-19T01:48:38;19.90;99.90
58566;DHT22;47788;46.172;-1.158;2022-08-19T01:51:04;19.90;99.90
58566;DHT22;47788;46.172;-1.158;2022-08-19T01:53:30;19.90;99.90
58566;DHT22;47788;46.172;-1.158;2022-08-19T01:55:56;20.00;99.90
58566;DHT22;47788;46.172;-1.158;2022-08-19T01:58:26;19.90;99.90
58566;DHT22;47788;46.172;-1.158;2022-08-19T02:00:54;19.90;99.90
58566;DHT22;47788;46.172;-1.158;2022-08-19T02:03:20;20.00;99.90
58566;DHT22;47788;46.172;-1.158;2022-08-19T02:05:45;20.00;99.90
58566;DHT22;47788;46.172;-1.158;2022-08-19T02:08:11;20.00;99.90
58566;DHT22;47788;46.172;-1.158;2022-08-19T02:10:42;20.00;99.90
58566;DHT22;47788;46.172;-1.158;2022-08-19T02:13:09;20.00;99.90
58566;DHT22;47788;46.172;-1.158;2022-08-19T02:15:35;20.00;99.90
58566;DHT22;47788;46.172;-1.158;2022-08-19T02:18:00;20.00;99.90
58566;DHT22;47788;46.172;-1.158;2022-08-19T02:20:26;20.00;99.90
58566;DHT22;47788;46.172;-1.158;2022-08-19T02:22:52;20.00;99.90
58566;DHT22;47788;46.172;-1.158;2022-08-19T02:25:17;20.00;99.90
58566;DHT22;47788;46.172;-1.158;2022-08-19T02:27:43;20.00;99.90
58566;DHT22;47788;46.172;-1.158;2022-08-19T02:30:14;20.00;99.90
58566;DHT22;47788;46.172;-1.158;2022-08-19T02:32:41;20.00;99.90
58566;DHT22;47788;46.172;-1.158;2022-08-19T02:35:08;20.10;99.90
58566;DHT22;47788;46.172;-1.158;2022-08-19T02:37:34;20.00;99.90
58566;DHT22;47788;46.172;-1.158;2022-08-19T02:40:18;20.00;99.90
58566;DHT22;47788;46.172;-1.158;2022-08-19T02:42:44;20.00;99.90
58566;DHT22;47788;46.172;-1.158;2022-08-19T02:45:12;19.90;99.90
58566;DHT22;47788;46.172;-1.158;2022-08-19T02:47:38;20.00;99.90
58566;DHT22;47788;46.172;-1.158;2022-08-19T02:50:05;20.00;99.90
58566;DHT22;47788;46.172;-1.158;2022-08-19T02:52:33;20.00;99.90
58566;DHT22;47788;46.172;-1.158;2022-08-19T02:54:59;20.00;99.90
58566;DHT22;47788;46.172;-1.158;2022-08-19T02:57:25;19.90;99.90
58566;DHT22;47788;46.172;-1.158;2022-08-19T02:59:52;19.90;99.90
58566;DHT22;47788;46.172;-1.158;2022-08-19T03:02:18;19.90;99.90
58566;DHT22;47788;46.172;-1.158;2022-08-19T03:04:44;19.90;99.90
58566;DHT22;47788;46.172;-1.158;2022-08-19T03:07:13;19.80;99.90
58566;DHT22;47788;46.172;-1.158;2022-08-19T03:09:39;19.80;99.90
58566;DHT22;47788;46.172;-1.158;2022-08-19T03:12:05;19.80;99.90
58566;DHT22;47788;46.172;-1.158;2022-08-19T03:14:32;19.70;99.90
58566;DHT22;47788;46.172;-1.158;2022-08-19T03:16:58;19.70;99.90
58566;DHT22;47788;46.172;-1.158;2022-08-19T03:19:24;19.80;99.90
58566;DHT22;47788;46.172;-1.158;2022-08-19T03:21:50;19.80;99.90
58566;DHT22;47788;46.172;-1.158;2022-08-19T03:24:18;19.80;99.90
58566;DHT22;47788;46.172;-1.158;2022-08-19T03:26:47;19.70;99.90
58566;DHT22;47788;46.172;-1.158;2022-08-19T03:29:14;19.80;99.90
58566;DHT22;47788;46.172;-1.158;2022-08-19T03:31:42;19.80;99.90
58566;DHT22;47788;46.172;-1.158;2022-08-19T03:34:09;19.80;99.90
58566;DHT22;47788;46.172;-1.158;2022-08-19T03:36:37;19.80;99.90
58566;DHT22;47788;46.172;-1.158;2022-08-19T03:39:03;19.80;99.90
58566;DHT22;47788;46.172;-1.158;2022-08-19T03:41:31;19.80;99.90
58566;DHT22;47788;46.172;-1.158;2022-08-19T03:43:58;19.90;99.90
58566;DHT22;47788;46.172;-1.158;2022-08-19T03:46:26;19.90;99.90
58566;DHT22;47788;46.172;-1.158;2022-08-19T03:48:55;19.90;99.90
58566;DHT22;47788;46.172;-1.158;2022-08-19T03:51:22;19.90;99.90
58566;DHT22;47788;46.172;-1.158;2022-08-19T03:53:48;19.90;99.90
58566;DHT22;47788;46.172;-1.158;2022-08-19T03:56:14;19.80;99.90
58566;DHT22;47788;46.172;-1.158;2022-08-19T03:58:42;19.80;99.90
58566;DHT22;47788;46.172;-1.158;2022-08-19T04:01:11;19.70;99.90
58566;DHT22;47788;46.172;-1.158;2022-08-19T04:03:38;19.70;99.90
58566;DHT22;47788;46.172;-1.158;2022-08-19T04:06:23;19.70;99.90
58566;DHT22;47788;46.172;-1.158;2022-08-19T04:08:50;19.60;99.90
58566;DHT22;47788;46.172;-1.158;2022-08-19T04:11:19;19.70;99.90
58566;DHT22;47788;46.172;-1.158;2022-08-19T04:13:49;19.60;99.90
58566;DHT22;47788;46.172;-1.158;2022-08-19T04:16:17;19.60;99.90
58566;DHT22;47788;46.172;-1.158;2022-08-19T04:18:43;19.60;99.90
58566;DHT22;47788;46.172;-1.158;2022-08-19T04:21:19;19.60;99.90
58566;DHT22;47788;46.172;-1.158;2022-08-19T04:23:45;19.60;99.90
58566;DHT22;47788;46.172;-1.158;2022-08-19T04:26:26;19.60;99.90
58566;DHT22;47788;46.172;-1.158;2022-08-19T04:28:53;19.60;99.90
58566;DHT22;47788;46.172;-1.158;2022-08-19T04:31:22;19.70;99.90
58566;DHT22;47788;46.172;-1.158;2022-08-19T04:33:52;19.60;99.90
58566;DHT22;47788;46.172;-1.158;2022-08-19T04:36:23;19.60;99.90
58566;DHT22;47788;46.172;-1.158;2022-08-19T04:38:50;19.60;99.90
58566;DHT22;47788;46.172;-1.158;2022-08-19T04:41:18;19.60;99.90
58566;DHT22;47788;46.172;-1.158;2022-08-19T04:44:02;19.50;99.90
58566;DHT22;47788;46.172;-1.158;2022-08-19T04:46:28;19.60;99.90
58566;DHT22;47788;46.172;-1.158;2022-08-19T04:48:56;19.50;99.90
58566;DHT22;47788;46.172;-1.158;2022-08-19T04:51:22;19.50;99.90
58566;DHT22;47788;46.172;-1.158;2022-08-19T04:53:48;19.50;99.90
58566;DHT22;47788;46.172;-1.158;2022-08-19T04:56:15;19.50;99.90
58566;DHT22;47788;46.172;-1.158;2022-08-19T04:58:44;19.60;99.90
58566;DHT22;47788;46.172;-1.158;2022-08-19T05:01:17;19.50;99.90
58566;DHT22;47788;46.172;-1.158;2022-08-19T05:03:43;19.50;99.90
58566;DHT22;47788;46.172;-1.158;2022-08-19T05:06:11;19.50;99.90
58566;DHT22;47788;46.172;-1.158;2022-08-19T05:08:39;19.50;99.90
58566;DHT22;47788;46.172;-1.158;2022-08-19T05:11:20;19.50;99.90
58566;DHT22;47788;46.172;-1.158;2022-08-19T05:13:47;19.50;99.90
58566;DHT22;47788;46.172;-1.158;2022-08-19T05:16:15;19.60;99.90
58566;DHT22;47788;46.172;-1.158;2022-08-19T05:18:41;19.60;99.90
58566;DHT22;47788;46.172;-1.158;2022-08-19T05:21:27;19.60;99.90
58566;DHT22;47788;46.172;-1.158;2022-08-19T05:24:12;19.70;99.90
58566;DHT22;47788;46.172;-1.158;2022-08-19T05:26:42;19.60;99.90
58566;DHT22;47788;46.172;-1.158;2022-08-19T05:29:08;19.60;99.90
58566;DHT22;47788;46.172;-1.158;2022-08-19T05:31:35;19.60;99.90
58566;DHT22;47788;46.172;-1.158;2022-08-19T05:34:01;19.70;99.90
58566;DHT22;47788;46.172;-1.158;2022-08-19T05:36:34;19.70;99.90
58566;DHT22;47788;46.172;-1.158;2022-08-19T05:39:00;19.70;99.90
58566;DHT22;47788;46.172;-1.158;2022-08-19T05:41:25;19.70;99.90
58566;DHT22;47788;46.172;-1.158;2022-08-19T05:44:02;19.60;99.90
58566;DHT22;47788;46.172;-1.158;2022-08-19T05:46:28;19.70;99.90
58566;DHT22;47788;46.172;-1.158;2022-08-19T05:48:54;19.70;99.90
58566;DHT22;47788;46.172;-1.158;2022-08-19T05:51:22;19.60;99.90
58566;DHT22;47788;46.172;-1.158;2022-08-19T05:53:48;19.60;99.90
58566;DHT22;47788;46.172;-1.158;2022-08-19T05:56:16;19.70;99.90
58566;DHT22;47788;46.172;-1.158;2022-08-19T05:58:43;19.70;99.90
58566;DHT22;47788;46.172;-1.158;2022-08-19T06:01:12;19.80;99.90
58566;DHT22;47788;46.172;-1.158;2022-08-19T06:03:38;19.90;99.90
58566;DHT22;47788;46.172;-1.158;2022-08-19T06:06:05;19.90;99.90
58566;DHT22;47788;46.172;-1.158;2022-08-19T06:08:31;19.90;99.90
58566;DHT22;47788;46.172;-1.158;2022-08-19T06:11:33;19.80;99.90
58566;DHT22;47788;46.172;-1.158;2022-08-19T06:14:01;19.80;99.90
58566;DHT22;47788;46.172;-1.158;2022-08-19T06:16:27;19.70;99.90
58566;DHT22;47788;46.172;-1.158;2022-08-19T06:18:54;19.70;99.90
58566;DHT22;47788;46.172;-1.158;2022-08-19T06:21:22;19.70;99.90
58566;DHT22;47788;46.172;-1.158;2022-08-19T06:23:49;19.70;99.90
58566;DHT22;47788;46.172;-1.158;2022-08-19T06:26:17;19.80;99.90
58566;DHT22;47788;46.172;-1.158;2022-08-19T06:28:44;19.80;99.90
58566;DHT22;47788;46.172;-1.158;2022-08-19T06:31:16;19.80;99.90
58566;DHT22;47788;46.172;-1.158;2022-08-19T06:33:44;19.90;99.90
58566;DHT22;47788;46.172;-1.158;2022-08-19T06:36:23;19.90;99.90
58566;DHT22;47788;46.172;-1.158;2022-08-19T06:39:08;20.00;99.90
58566;DHT22;47788;46.172;-1.158;2022-08-19T06:41:40;20.10;99.90
58566;DHT22;47788;46.172;-1.158;2022-08-19T06:44:06;20.20;99.90
58566;DHT22;47788;46.172;-1.158;2022-08-19T06:46:32;20.30;99.90
58566;DHT22;47788;46.172;-1.158;2022-08-19T06:48:59;20.50;99.90
58566;DHT22;47788;46.172;-1.158;2022-08-19T06:51:25;20.70;99.90
58566;DHT22;47788;46.172;-1.158;2022-08-19T06:53:54;20.90;99.90
58566;DHT22;47788;46.172;-1.158;2022-08-19T06:56:23;21.10;99.90
58566;DHT22;47788;46.172;-1.158;2022-08-19T06:58:50;21.20;99.90
58566;DHT22;47788;46.172;-1.158;2022-08-19T07:01:18;21.30;99.90
58566;DHT22;47788;46.172;-1.158;2022-08-19T07:03:44;21.30;99.90
58566;DHT22;47788;46.172;-1.158;2022-08-19T07:06:14;21.40;99.90
58566;DHT22;47788;46.172;-1.158;2022-08-19T07:08:43;21.40;99.90
58566;DHT22;47788;46.172;-1.158;2022-08-19T07:11:11;21.40;99.90
58566;DHT22;47788;46.172;-1.158;2022-08-19T07:13:38;21.40;99.90
58566;DHT22;47788;46.172;-1.158;2022-08-19T07:16:07;21.60;99.90
58566;DHT22;47788;46.172;-1.158;2022-08-19T07:18:34;21.60;99.90
58566;DHT22;47788;46.172;-1.158;2022-08-19T07:21:25;21.60;99.90
58566;DHT22;47788;46.172;-1.158;2022-08-19T07:23:53;21.60;99.90
58566;DHT22;47788;46.172;-1.158;2022-08-19T07:26:23;21.70;99.90
58566;DHT22;47788;46.172;-1.158;2022-08-19T07:28:50;21.60;99.90
58566;DHT22;47788;46.172;-1.158;2022-08-19T07:31:19;21.60;99.90
58566;DHT22;47788;46.172;-1.158;2022-08-19T07:33:46;21.50;99.90
58566;DHT22;47788;46.172;-1.158;2022-08-19T07:36:15;21.60;99.90
58566;DHT22;47788;46.172;-1.158;2022-08-19T07:38:43;21.70;99.90
58566;DHT22;47788;46.172;-1.158;2022-08-19T07:41:12;21.70;99.90
58566;DHT22;47788;46.172;-1.158;2022-08-19T07:43:39;21.60;99.90
58566;DHT22;47788;46.172;-1.158;2022-08-19T07:46:06;21.60;99.90
58566;DHT22;47788;46.172;-1.158;2022-08-19T07:48:32;21.60;99.90
58566;DHT22;47788;46.172;-1.158;2022-08-19T07:51:04;21.60;99.90
58566;DHT22;47788;46.172;-1.158;2022-08-19T07:53:31;21.60;99.90
58566;DHT22;47788;46.172;-1.158;2022-08-19T07:55:58;21.70;99.90
58566;DHT22;47788;46.172;-1.158;2022-08-19T07:58:31;21.80;99.90
58566;DHT22;47788;46.172;-1.158;2022-08-19T08:00:57;21.80;99.90
58566;DHT22;47788;46.172;-1.158;2022-08-19T08:03:23;21.90;99.90
58566;DHT22;47788;46.172;-1.158;2022-08-19T08:06:09;21.80;99.90
58566;DHT22;47788;46.172;-1.158;2022-08-19T08:08:53;21.80;99.90
58566;DHT22;47788;46.172;-1.158;2022-08-19T08:11:39;21.90;99.90
58566;DHT22;47788;46.172;-1.158;2022-08-19T08:14:06;22.10;99.90
58566;DHT22;47788;46.172;-1.158;2022-08-19T08:16:37;22.20;99.90
58566;DHT22;47788;46.172;-1.158;2022-08-19T08:19:05;22.20;99.90
58566;DHT22;47788;46.172;-1.158;2022-08-19T08:21:31;22.10;99.90
58566;DHT22;47788;46.172;-1.158;2022-08-19T08:23:57;22.20;99.90
58566;DHT22;47788;46.172;-1.158;2022-08-19T08:26:23;22.20;99.90
58566;DHT22;47788;46.172;-1.158;2022-08-19T08:28:51;22.10;99.90
58566;DHT22;47788;46.172;-1.158;2022-08-19T08:31:17;22.10;99.90
58566;DHT22;47788;46.172;-1.158;2022-08-19T08:33:44;22.00;99.90
58566;DHT22;47788;46.172;-1.158;2022-08-19T08:36:11;22.00;99.90
58566;DHT22;47788;46.172;-1.158;2022-08-19T08:38:40;22.20;99.90
58566;DHT22;47788;46.172;-1.158;2022-08-19T08:43:47;22.80;99.90
58566;DHT22;47788;46.172;-1.158;2022-08-19T08:46:35;22.90;99.90
58566;DHT22;47788;46.172;-1.158;2022-08-19T08:50:09;22.80;99.90
58566;DHT22;47788;46.172;-1.158;2022-08-19T08:52:26;22.90;99.90
58566;DHT22;47788;46.172;-1.158;2022-08-19T08:54:57;23.10;99.90
58566;DHT22;47788;46.172;-1.158;2022-08-19T08:57:36;23.30;99.90
58566;DHT22;47788;46.172;-1.158;2022-08-19T09:00:06;23.40;99.90
58566;DHT22;47788;46.172;-1.158;2022-08-19T09:02:32;23.40;99.90
58566;DHT22;47788;46.172;-1.158;2022-08-19T09:04:58;23.40;99.90
58566;DHT22;47788;46.172;-1.158;2022-08-19T09:11:15;23.20;99.90
58566;DHT22;47788;46.172;-1.158;2022-08-19T09:16:18;23.00;99.90
58566;DHT22;47788;46.172;-1.158;2022-08-19T09:18:51;22.80;99.90
58566;DHT22;47788;46.172;-1.158;2022-08-19T09:21:21;22.70;99.90
58566;DHT22;47788;46.172;-1.158;2022-08-19T09:23:51;22.80;99.90
58566;DHT22;47788;46.172;-1.158;2022-08-19T09:26:21;22.70;99.90
58566;DHT22;47788;46.172;-1.158;2022-08-19T09:28:48;22.80;99.90
58566;DHT22;47788;46.172;-1.158;2022-08-19T09:31:23;22.80;99.90
58566;DHT22;47788;46.172;-1.158;2022-08-19T09:34:04;22.70;99.90
58566;DHT22;47788;46.172;-1.158;2022-08-19T09:36:30;22.80;99.90
58566;DHT22;47788;46.172;-1.158;2022-08-19T09:39:03;22.90;99.90
58566;DHT22;47788;46.172;-1.158;2022-08-19T09:41:29;23.20;99.90
58566;DHT22;47788;46.172;-1.158;2022-08-19T09:43:56;23.40;99.90
58566;DHT22;47788;46.172;-1.158;2022-08-19T09:46:24;23.30;99.90
58566;DHT22;47788;46.172;-1.158;2022-08-19T09:48:52;23.50;99.90
58566;DHT22;47788;46.172;-1.158;2022-08-19T09:51:23;23.60;99.90
58566;DHT22;47788;46.172;-1.158;2022-08-19T09:53:51;23.70;99.90
58566;DHT22;47788;46.172;-1.158;2022-08-19T09:56:20;23.40;99.90
58566;DHT22;47788;46.172;-1.158;2022-08-19T09:58:47;23.20;99.90
58566;DHT22;47788;46.172;-1.158;2022-08-19T10:01:18;23.30;99.90
58566;DHT22;47788;46.172;-1.158;2022-08-19T10:03:51;23.50;99.90
58566;DHT22;47788;46.172;-1.158;2022-08-19T10:06:18;23.50;99.90
58566;DHT22;47788;46.172;-1.158;2022-08-19T10:08:44;23.50;99.90
58566;DHT22;47788;46.172;-1.158;2022-08-19T10:11:10;23.50;99.90
58566;DHT22;47788;46.172;-1.158;2022-08-19T10:13:36;23.40;99.90
58566;DHT22;47788;46.172;-1.158;2022-08-19T10:16:05;23.20;99.90
58566;DHT22;47788;46.172;-1.158;2022-08-19T10:18:32;23.00;99.90
58566;DHT22;47788;46.172;-1.158;2022-08-19T10:23:37;22.90;99.90
58566;DHT22;47788;46.172;-1.158;2022-08-19T10:26:05;22.90;99.90
58566;DHT22;47788;46.172;-1.158;2022-08-19T10:28:32;23.00;99.90
58566;DHT22;47788;46.172;-1.158;2022-08-19T10:30:58;23.00;99.90
58566;DHT22;47788;46.172;-1.158;2022-08-19T10:33:28;22.90;99.90
58566;DHT22;47788;46.172;-1.158;2022-08-19T10:36:03;22.90;99.90
58566;DHT22;47788;46.172;-1.158;2022-08-19T10:38:28;22.80;99.90
58566;DHT22;47788;46.172;-1.158;2022-08-19T10:40:54;22.80;99.90
58566;DHT22;47788;46.172;-1.158;2022-08-19T10:43:20;22.70;99.90
58566;DHT22;47788;46.172;-1.158;2022-08-19T10:45:52;22.80;99.90
58566;DHT22;47788;46.172;-1.158;2022-08-19T10:48:22;22.90;99.90
58566;DHT22;47788;46.172;-1.158;2022-08-19T10:50:47;23.20;99.90
58566;DHT22;47788;46.172;-1.158;2022-08-19T10:53:31;23.60;99.90
58566;DHT22;47788;46.172;-1.158;2022-08-19T10:55:57;24.00;99.90
58566;DHT22;47788;46.172;-1.158;2022-08-19T10:58:41;24.10;99.90
58566;DHT22;47788;46.172;-1.158;2022-08-19T11:01:07;24.40;99.90
58566;DHT22;47788;46.172;-1.158;2022-08-19T11:03:32;24.60;99.90
58566;DHT22;47788;46.172;-1.158;2022-08-19T11:06:07;24.80;99.90
58566;DHT22;47788;46.172;-1.158;2022-08-19T11:08:35;24.90;99.90
58566;DHT22;47788;46.172;-1.158;2022-08-19T11:11:05;24.50;99.90
58566;DHT22;47788;46.172;-1.158;2022-08-19T11:13:34;24.30;99.90
58566;DHT22;47788;46.172;-1.158;2022-08-19T11:16:13;24.20;99.90
58566;DHT22;47788;46.172;-1.158;2022-08-19T11:18:42;24.20;99.90
58566;DHT22;47788;46.172;-1.158;2022-08-19T11:21:15;24.00;99.90
58566;DHT22;47788;46.172;-1.158;2022-08-19T11:23:43;23.70;99.90
58566;DHT22;47788;46.172;-1.158;2022-08-19T11:26:09;23.60;99.90
58566;DHT22;47788;46.172;-1.158;2022-08-19T11:28:35;23.40;99.90
58566;DHT22;47788;46.172;-1.158;2022-08-19T11:31:01;23.50;99.90
58566;DHT22;47788;46.172;-1.158;2022-08-19T11:33:29;23.80;99.90
58566;DHT22;47788;46.172;-1.158;2022-08-19T11:35:57;24.20;99.90
58566;DHT22;47788;46.172;-1.158;2022-08-19T11:38:24;24.40;99.90
58566;DHT22;47788;46.172;-1.158;2022-08-19T11:40:58;24.50;99.90
58566;DHT22;47788;46.172;-1.158;2022-08-19T11:43:25;24.70;99.90
58566;DHT22;47788;46.172;-1.158;2022-08-19T11:45:53;24.90;99.90
58566;DHT22;47788;46.172;-1.158;2022-08-19T11:48:19;24.80;99.90
58566;DHT22;47788;46.172;-1.158;2022-08-19T11:50:51;25.00;99.90
58566;DHT22;47788;46.172;-1.158;2022-08-19T11:53:18;25.40;99.90
58566;DHT22;47788;46.172;-1.158;2022-08-19T11:55:46;25.30;99.90
58566;DHT22;47788;46.172;-1.158;2022-08-19T11:58:12;25.00;99.90
58566;DHT22;47788;46.172;-1.158;2022-08-19T12:00:39;24.60;99.90
58566;DHT22;47788;46.172;-1.158;2022-08-19T12:03:05;24.50;99.90
58566;DHT22;47788;46.172;-1.158;2022-08-19T12:05:31;24.20;99.90
58566;DHT22;47788;46.172;-1.158;2022-08-19T12:07:57;24.30;99.90
58566;DHT22;47788;46.172;-1.158;2022-08-19T12:10:23;24.50;99.90
58566;DHT22;47788;46.172;-1.158;2022-08-19T12:12:49;24.50;99.90
58566;DHT22;47788;46.172;-1.158;2022-08-19T12:15:15;24.20;99.90
58566;DHT22;47788;46.172;-1.158;2022-08-19T12:17:42;24.00;99.90
58566;DHT22;47788;46.172;-1.158;2022-08-19T12:20:10;24.00;99.90
58566;DHT22;47788;46.172;-1.158;2022-08-19T12:22:37;23.90;99.90
58566;DHT22;47788;46.172;-1.158;2022-08-19T12:25:04;24.00;99.90
58566;DHT22;47788;46.172;-1.158;2022-08-19T12:27:30;24.00;99.90
58566;DHT22;47788;46.172;-1.158;2022-08-19T12:29:56;23.80;99.90
58566;DHT22;47788;46.172;-1.158;2022-08-19T12:32:22;23.70;99.90
58566;DHT22;47788;46.172;-1.158;2022-08-19T12:34:50;23.60;99.90
58566;DHT22;47788;46.172;-1.158;2022-08-19T12:37:15;23.70;99.90
58566;DHT22;47788;46.172;-1.158;2022-08-19T12:39:42;23.70;99.90
58566;DHT22;47788;46.172;-1.158;2022-08-19T12:42:10;23.60;99.90
58566;DHT22;47788;46.172;-1.158;2022-08-19T12:44:38;23.50;99.90
58566;DHT22;47788;46.172;-1.158;2022-08-19T12:47:05;23.50;99.90
58566;DHT22;47788;46.172;-1.158;2022-08-19T12:49:32;23.60;99.90
58566;DHT22;47788;46.172;-1.158;2022-08-19T12:52:00;23.70;99.90
58566;DHT22;47788;46.172;-1.158;2022-08-19T12:54:26;23.80;99.90
58566;DHT22;47788;46.172;-1.158;2022-08-19T12:56:51;24.00;99.90
58566;DHT22;47788;46.172;-1.158;2022-08-19T12:59:17;24.10;99.90
58566;DHT22;47788;46.172;-1.158;2022-08-19T13:01:44;24.30;99.90
58566;DHT22;47788;46.172;-1.158;2022-08-19T13:04:10;24.80;99.90
58566;DHT22;47788;46.172;-1.158;2022-08-19T13:06:36;25.30;99.90
58566;DHT22;47788;46.172;-1.158;2022-08-19T13:09:04;25.50;99.90
58566;DHT22;47788;46.172;-1.158;2022-08-19T13:11:30;26.10;99.90
58566;DHT22;47788;46.172;-1.158;2022-08-19T13:14:01;26.60;99.90
58566;DHT22;47788;46.172;-1.158;2022-08-19T13:16:28;26.70;99.90
58566;DHT22;47788;46.172;-1.158;2022-08-19T13:18:55;26.40;99.90
58566;DHT22;47788;46.172;-1.158;2022-08-19T13:21:23;26.10;99.90
58566;DHT22;47788;46.172;-1.158;2022-08-19T13:23:50;26.00;99.90
58566;DHT22;47788;46.172;-1.158;2022-08-19T13:26:16;26.00;99.90
58566;DHT22;47788;46.172;-1.158;2022-08-19T13:28:43;26.00;99.90
58566;DHT22;47788;46.172;-1.158;2022-08-19T13:31:30;26.20;99.90
58566;DHT22;47788;46.172;-1.158;2022-08-19T13:34:15;26.10;99.90
58566;DHT22;47788;46.172;-1.158;2022-08-19T13:36:41;26.40;99.90
58566;DHT22;47788;46.172;-1.158;2022-08-19T13:39:08;26.50;99.90
58566;DHT22;47788;46.172;-1.158;2022-08-19T13:41:35;26.80;99.90
58566;DHT22;47788;46.172;-1.158;2022-08-19T13:44:02;26.90;99.90
58566;DHT22;47788;46.172;-1.158;2022-08-19T13:46:28;26.70;99.90
58566;DHT22;47788;46.172;-1.158;2022-08-19T13:48:55;26.90;99.90
58566;DHT22;47788;46.172;-1.158;2022-08-19T13:51:21;27.10;99.90
58566;DHT22;47788;46.172;-1.158;2022-08-19T13:53:47;27.40;99.90
58566;DHT22;47788;46.172;-1.158;2022-08-19T13:56:15;27.80;99.90
58566;DHT22;47788;46.172;-1.158;2022-08-19T13:58:41;28.10;99.90
58566;DHT22;47788;46.172;-1.158;2022-08-19T14:01:08;28.00;99.90
58566;DHT22;47788;46.172;-1.158;2022-08-19T14:03:35;27.70;99.90
58566;DHT22;47788;46.172;-1.158;2022-08-19T14:06:01;27.60;99.90
58566;DHT22;47788;46.172;-1.158;2022-08-19T14:08:27;27.30;99.90
58566;DHT22;47788;46.172;-1.158;2022-08-19T14:10:56;27.60;99.90
58566;DHT22;47788;46.172;-1.158;2022-08-19T14:13:23;27.90;99.90
58566;DHT22;47788;46.172;-1.158;2022-08-19T14:15:50;27.80;99.90
58566;DHT22;47788;46.172;-1.158;2022-08-19T14:18:17;27.60;99.90
58566;DHT22;47788;46.172;-1.158;2022-08-19T14:20:43;27.40;99.90
58566;DHT22;47788;46.172;-1.158;2022-08-19T14:23:10;27.60;99.90
58566;DHT22;47788;46.172;-1.158;2022-08-19T14:25:37;27.60;99.90
58566;DHT22;47788;46.172;-1.158;2022-08-19T14:28:03;28.60;99.90
58566;DHT22;47788;46.172;-1.158;2022-08-19T14:30:31;29.20;99.90
58566;DHT22;47788;46.172;-1.158;2022-08-19T14:32:58;30.20;99.90
58566;DHT22;47788;46.172;-1.158;2022-08-19T14:35:26;30.40;99.90
58566;DHT22;47788;46.172;-1.158;2022-08-19T14:37:53;29.70;99.90
58566;DHT22;47788;46.172;-1.158;2022-08-19T14:40:26;29.80;99.90
58566;DHT22;47788;46.172;-1.158;2022-08-19T14:42:54;30.90;99.90
58566;DHT22;47788;46.172;-1.158;2022-08-19T14:45:26;32.00;99.50
58566;DHT22;47788;46.172;-1.158;2022-08-19T14:47:52;32.80;98.60
58566;DHT22;47788;46.172;-1.158;2022-08-19T14:50:19;33.20;97.80
58566;DHT22;47788;46.172;-1.158;2022-08-19T14:52:49;34.20;96.40
58566;DHT22;47788;46.172;-1.158;2022-08-19T14:55:16;35.30;94.80
58566;DHT22;47788;46.172;-1.158;2022-08-19T14:57:43;34.80;94.60
58566;DHT22;47788;46.172;-1.158;2022-08-19T15:00:10;34.30;95.40
58566;DHT22;47788;46.172;-1.158;2022-08-19T15:02:42;35.80;94.40
58566;DHT22;47788;46.172;-1.158;2022-08-19T15:05:11;35.30;95.00
58566;DHT22;47788;46.172;-1.158;2022-08-19T15:07:38;34.30;95.30
58566;DHT22;47788;46.172;-1.158;2022-08-19T15:10:05;33.40;96.30
58566;DHT22;47788;46.172;-1.158;2022-08-19T15:12:35;32.30;97.30
58566;DHT22;47788;46.172;-1.158;2022-08-19T15:15:01;31.30;98.90
58566;DHT22;47788;46.172;-1.158;2022-08-19T15:17:27;30.90;99.60
58566;DHT22;47788;46.172;-1.158;2022-08-19T15:19:55;29.70;99.90
58566;DHT22;47788;46.172;-1.158;2022-08-19T15:22:21;28.70;99.90
58566;DHT22;47788;46.172;-1.158;2022-08-19T15:24:48;28.30;99.90
58566;DHT22;47788;46.172;-1.158;2022-08-19T15:27:14;30.00;99.90
58566;DHT22;47788;46.172;-1.158;2022-08-19T15:29:40;31.40;99.60
58566;DHT22;47788;46.172;-1.158;2022-08-19T15:32:07;31.90;98.90
58566;DHT22;47788;46.172;-1.158;2022-08-19T15:34:33;31.90;99.00
58566;DHT22;47788;46.172;-1.158;2022-08-19T15:37:00;32.10;98.70
58566;DHT22;47788;46.172;-1.158;2022-08-19T15:39:26;34.10;97.10